sensor_id;sensor_type;location;lat;lon;timestamp;pressure;altitude;pressure_sealevel;temperature;humidity
44872;BME280;30602;51.060;17.226;2023-05-01T00:01:09;102159.37;;;4.20;84.54
44872;BME280;30602;51.060;17.226;2023-05-01T00:05:10;102151.73;;;4.18;84.60
44872;BME280;30602;51.060;17.226;2023-05-01T00:08:32;102144.28;;;4.22;84.88
44872;BME280;30602;51.060;17.226;2023-05-01T00:12:23;102140.51;;;4.23;85.35
44872;BME280;30602;51.060;17.226;2023-05-01T00:16:22;102138.51;;;4.21;84.87
44872;BME280;30602;51.060;17.226;2023-05-01T00:20:19;102137.84;;;4.06;84.07
44872;BME280;30602;51.060;17.226;2023-05-01T00:24:07;102137.95;;;3.72;84.07
44872;BME280;30602;51.060;17.226;2023-05-01T00:27:51;102134.40;;;3.63;84.70
44872;BME280;30602;51.060;17.226;2023-05-01T00:31:13;102131.07;;;3.50;85.06
44872;BME280;30602;51.060;17.226;2023-05-01T00:34:55;102127.59;;;3.49;86.03
44872;BME280;30602;51.060;17.226;2023-05-01T00:38:30;102127.79;;;3.54;87.39
44872;BME280;30602;51.060;17.226;2023-05-01T00:42:03;102117.38;;;3.50;87.61
44872;BME280;30602;51.060;17.226;2023-05-01T00:45:55;102118.11;;;3.62;88.47
44872;BME280;30602;51.060;17.226;2023-05-01T00:53:23;102118.99;;;3.80;89.08
44872;BME280;30602;51.060;17.226;2023-05-01T00:57:38;102102.19;;;3.75;88.38
44872;BME280;30602;51.060;17.226;2023-05-01T01:01:23;102118.57;;;3.72;86.35
44872;BME280;30602;51.060;17.226;2023-05-01T01:04:46;102115.60;;;3.55;85.31
44872;BME280;30602;51.060;17.226;2023-05-01T01:13:19;102114.98;;;3.42;85.42
44872;BME280;30602;51.060;17.226;2023-05-01T01:21:31;102114.44;;;3.36;86.56
44872;BME280;30602;51.060;17.226;2023-05-01T01:45:03;102103.79;;;2.87;85.85
44872;BME280;30602;51.060;17.226;2023-05-01T01:49:26;102098.48;;;2.77;86.54
44872;BME280;30602;51.060;17.226;2023-05-01T01:53:22;102100.52;;;2.70;87.44
44872;BME280;30602;51.060;17.226;2023-05-01T01:57:07;102100.29;;;2.76;87.83
44872;BME280;30602;51.060;17.226;2023-05-01T02:01:04;102097.80;;;2.75;87.27
44872;BME280;30602;51.060;17.226;2023-05-01T02:04:35;102100.30;;;2.66;86.67
44872;BME280;30602;51.060;17.226;2023-05-01T02:07:56;102099.62;;;2.69;86.82
44872;BME280;30602;51.060;17.226;2023-05-01T02:11:21;102094.05;;;2.68;86.72
44872;BME280;30602;51.060;17.226;2023-05-01T02:14:44;102094.63;;;2.66;86.75
44872;BME280;30602;51.060;17.226;2023-05-01T02:18:39;102091.39;;;2.64;86.61
44872;BME280;30602;51.060;17.226;2023-05-01T02:22:04;102084.28;;;2.65;86.28
44872;BME280;30602;51.060;17.226;2023-05-01T02:25:38;102088.25;;;2.50;86.15
44872;BME280;30602;51.060;17.226;2023-05-01T02:29:06;102086.90;;;2.44;86.49
44872;BME280;30602;51.060;17.226;2023-05-01T02:32:45;102088.45;;;2.38;86.83
44872;BME280;30602;51.060;17.226;2023-05-01T02:36:28;102087.95;;;2.35;87.11
44872;BME280;30602;51.060;17.226;2023-05-01T02:39:50;102082.26;;;2.23;87.04
44872;BME280;30602;51.060;17.226;2023-05-01T02:43:17;102085.03;;;2.15;87.76
44872;BME280;30602;51.060;17.226;2023-05-01T02:47:31;102085.65;;;2.17;87.73
44872;BME280;30602;51.060;17.226;2023-05-01T02:51:26;102079.81;;;2.15;87.27
44872;BME280;30602;51.060;17.226;2023-05-01T02:55:38;102082.41;;;2.12;87.08
44872;BME280;30602;51.060;17.226;2023-05-01T02:59:05;102081.20;;;2.06;86.65
44872;BME280;30602;51.060;17.226;2023-05-01T03:02:55;102082.13;;;2.02;86.88
44872;BME280;30602;51.060;17.226;2023-05-01T03:06:33;102076.63;;;1.92;86.75
44872;BME280;30602;51.060;17.226;2023-05-01T03:09:55;102079.19;;;1.80;87.39
44872;BME280;30602;51.060;17.226;2023-05-01T03:13:40;102081.32;;;1.77;87.89
44872;BME280;30602;51.060;17.226;2023-05-01T03:17:04;102078.84;;;1.74;89.05
44872;BME280;30602;51.060;17.226;2023-05-01T03:20:53;102080.48;;;1.71;89.35
44872;BME280;30602;51.060;17.226;2023-05-01T03:25:12;102073.65;;;1.75;89.89
44872;BME280;30602;51.060;17.226;2023-05-01T03:28:57;102043.96;;;1.65;90.05
44872;BME280;30602;51.060;17.226;2023-05-01T03:32:53;102042.84;;;1.67;90.02
44872;BME280;30602;51.060;17.226;2023-05-01T03:36:48;102066.92;;;1.85;89.24
44872;BME280;30602;51.060;17.226;2023-05-01T03:40:25;102066.71;;;1.80;88.53
44872;BME280;30602;51.060;17.226;2023-05-01T03:43:44;102071.18;;;1.69;88.81
44872;BME280;30602;51.060;17.226;2023-05-01T03:47:57;102072.60;;;1.70;90.05
44872;BME280;30602;51.060;17.226;2023-05-01T03:51:23;102068.95;;;1.79;90.17
44872;BME280;30602;51.060;17.226;2023-05-01T03:55:03;102065.93;;;1.83;90.75
44872;BME280;30602;51.060;17.226;2023-05-01T03:59:15;102069.34;;;1.98;90.88
44872;BME280;30602;51.060;17.226;2023-05-01T04:02:38;102071.62;;;2.09;90.62
44872;BME280;30602;51.060;17.226;2023-05-01T04:06:30;102070.13;;;2.11;90.58
44872;BME280;30602;51.060;17.226;2023-05-01T04:10:12;102068.92;;;2.23;90.82
44872;BME280;30602;51.060;17.226;2023-05-01T04:14:04;102060.77;;;2.29;90.88
44872;BME280;30602;51.060;17.226;2023-05-01T04:17:31;102051.59;;;2.40;90.76
44872;BME280;30602;51.060;17.226;2023-05-01T04:21:18;102048.06;;;2.48;90.95
44872;BME280;30602;51.060;17.226;2023-05-01T04:25:01;102044.70;;;2.69;91.33
44872;BME280;30602;51.060;17.226;2023-05-01T04:28:46;102047.36;;;2.98;91.19
44872;BME280;30602;51.060;17.226;2023-05-01T04:32:33;102051.34;;;3.13;91.04
44872;BME280;30602;51.060;17.226;2023-05-01T04:36:14;102048.37;;;3.32;90.94
44872;BME280;30602;51.060;17.226;2023-05-01T04:39:53;102050.99;;;3.46;90.75
44872;BME280;30602;51.060;17.226;2023-05-01T04:43:33;102042.80;;;3.59;90.67
44872;BME280;30602;51.060;17.226;2023-05-01T04:48:01;102053.17;;;3.86;90.31
44872;BME280;30602;51.060;17.226;2023-05-01T04:51:57;102048.66;;;4.11;89.46
44872;BME280;30602;51.060;17.226;2023-05-01T04:55:38;102045.63;;;4.29;89.37
44872;BME280;30602;51.060;17.226;2023-05-01T04:59:59;102049.30;;;4.47;90.05
44872;BME280;30602;51.060;17.226;2023-05-01T05:03:40;102048.70;;;4.78;89.64
44872;BME280;30602;51.060;17.226;2023-05-01T05:07:05;102045.33;;;5.00;90.47
44872;BME280;30602;51.060;17.226;2023-05-01T05:11:00;102046.16;;;5.24;88.83
44872;BME280;30602;51.060;17.226;2023-05-01T05:14:59;102042.69;;;5.54;89.36
44872;BME280;30602;51.060;17.226;2023-05-01T05:18:25;102042.70;;;5.77;87.82
44872;BME280;30602;51.060;17.226;2023-05-01T05:22:09;102035.90;;;5.96;87.68
44872;BME280;30602;51.060;17.226;2023-05-01T05:25:51;102041.15;;;6.22;88.06
44872;BME280;30602;51.060;17.226;2023-05-01T05:29:13;102037.23;;;6.41;88.82
44872;BME280;30602;51.060;17.226;2023-05-01T05:33:20;102030.03;;;6.53;87.71
44872;BME280;30602;51.060;17.226;2023-05-01T05:36:45;102022.82;;;6.86;83.41
44872;BME280;30602;51.060;17.226;2023-05-01T05:40:38;102019.73;;;6.95;80.82
44872;BME280;30602;51.060;17.226;2023-05-01T05:44:24;102016.80;;;7.23;79.54
44872;BME280;30602;51.060;17.226;2023-05-01T05:48:05;102021.45;;;7.46;80.46
44872;BME280;30602;51.060;17.226;2023-05-01T05:52:05;102012.23;;;7.76;79.99
44872;BME280;30602;51.060;17.226;2023-05-01T05:55:47;102014.81;;;7.94;79.02
44872;BME280;30602;51.060;17.226;2023-05-01T05:59:21;102012.87;;;8.01;78.30
44872;BME280;30602;51.060;17.226;2023-05-01T06:03:17;102014.59;;;8.22;78.63
44872;BME280;30602;51.060;17.226;2023-05-01T06:06:41;102016.58;;;8.42;76.76
44872;BME280;30602;51.060;17.226;2023-05-01T06:14:32;102011.55;;;8.83;76.55
44872;BME280;30602;51.060;17.226;2023-05-01T06:18:03;102009.57;;;9.02;74.31
44872;BME280;30602;51.060;17.226;2023-05-01T06:21:44;102008.28;;;9.08;73.45
44872;BME280;30602;51.060;17.226;2023-05-01T06:25:09;102009.61;;;9.38;72.90
44872;BME280;30602;51.060;17.226;2023-05-01T06:31:37;102004.74;;;9.67;71.12
44872;BME280;30602;51.060;17.226;2023-05-01T06:35:37;102001.48;;;10.03;67.64
44872;BME280;30602;51.060;17.226;2023-05-01T06:39:29;102000.91;;;10.24;65.75
44872;BME280;30602;51.060;17.226;2023-05-01T06:42:54;101994.25;;;10.55;63.39
44872;BME280;30602;51.060;17.226;2023-05-01T06:46:38;101988.86;;;10.73;63.13
44872;BME280;30602;51.060;17.226;2023-05-01T06:50:15;101985.39;;;10.87;64.77
44872;BME280;30602;51.060;17.226;2023-05-01T06:52:59;101985.24;;;10.88;62.88
44872;BME280;30602;51.060;17.226;2023-05-01T06:56:19;101979.38;;;11.10;61.50
44872;BME280;30602;51.060;17.226;2023-05-01T06:59:45;101977.25;;;11.27;61.12
44872;BME280;30602;51.060;17.226;2023-05-01T07:03:24;101970.48;;;11.37;58.90
44872;BME280;30602;51.060;17.226;2023-05-01T07:06:51;101962.77;;;11.39;60.28
44872;BME280;30602;51.060;17.226;2023-05-01T07:10:13;101961.26;;;11.41;59.40
44872;BME280;30602;51.060;17.226;2023-05-01T07:14:05;101956.53;;;11.74;59.91
44872;BME280;30602;51.060;17.226;2023-05-01T07:17:28;101953.19;;;11.89;57.83
44872;BME280;30602;51.060;17.226;2023-05-01T07:21:13;101954.18;;;11.92;55.33
44872;BME280;30602;51.060;17.226;2023-05-01T07:25:11;101948.53;;;12.00;54.99
44872;BME280;30602;51.060;17.226;2023-05-01T07:28:31;101939.62;;;12.09;55.82
44872;BME280;30602;51.060;17.226;2023-05-01T07:32:52;101947.81;;;12.33;55.57
44872;BME280;30602;51.060;17.226;2023-05-01T07:36:16;101952.27;;;12.45;52.13
44872;BME280;30602;51.060;17.226;2023-05-01T07:39:40;101949.82;;;12.48;54.81
44872;BME280;30602;51.060;17.226;2023-05-01T07:43:47;101949.51;;;12.50;53.26
44872;BME280;30602;51.060;17.226;2023-05-01T07:47:10;101939.48;;;12.61;51.65
44872;BME280;30602;51.060;17.226;2023-05-01T07:50:34;101937.63;;;12.69;49.58
44872;BME280;30602;51.060;17.226;2023-05-01T07:53:55;101940.45;;;12.77;51.54
44872;BME280;30602;51.060;17.226;2023-05-01T07:58:01;101936.82;;;12.91;51.72
44872;BME280;30602;51.060;17.226;2023-05-01T08:02:16;101938.13;;;13.04;50.80
44872;BME280;30602;51.060;17.226;2023-05-01T08:06:22;101927.70;;;13.18;49.27
44872;BME280;30602;51.060;17.226;2023-05-01T08:10:27;101929.46;;;13.30;49.85
44872;BME280;30602;51.060;17.226;2023-05-01T08:13:56;101916.26;;;13.36;49.63
44872;BME280;30602;51.060;17.226;2023-05-01T08:17:39;101924.48;;;13.57;48.39
44872;BME280;30602;51.060;17.226;2023-05-01T08:21:06;101924.41;;;13.65;47.56
44872;BME280;30602;51.060;17.226;2023-05-01T08:24:49;101923.88;;;13.82;47.36
44872;BME280;30602;51.060;17.226;2023-05-01T08:28:10;101917.91;;;13.95;45.34
44872;BME280;30602;51.060;17.226;2023-05-01T08:31:44;101916.95;;;14.02;45.47
44872;BME280;30602;51.060;17.226;2023-05-01T08:35:22;101913.93;;;14.03;43.71
44872;BME280;30602;51.060;17.226;2023-05-01T08:39:41;101904.65;;;14.13;46.00
44872;BME280;30602;51.060;17.226;2023-05-01T08:43:01;101904.46;;;14.25;43.99
44872;BME280;30602;51.060;17.226;2023-05-01T08:46:37;101896.24;;;14.35;45.37
44872;BME280;30602;51.060;17.226;2023-05-01T08:50:16;101905.85;;;14.41;42.91
44872;BME280;30602;51.060;17.226;2023-05-01T08:53:26;101893.52;;;14.46;44.20
44872;BME280;30602;51.060;17.226;2023-05-01T08:57:33;101890.70;;;14.73;44.41
44872;BME280;30602;51.060;17.226;2023-05-01T09:01:23;101891.73;;;14.91;43.61
44872;BME280;30602;51.060;17.226;2023-05-01T09:04:43;101879.56;;;14.76;41.17
44872;BME280;30602;51.060;17.226;2023-05-01T09:08:39;101876.83;;;14.72;43.03
44872;BME280;30602;51.060;17.226;2023-05-01T09:12:24;101877.18;;;14.85;42.29
44872;BME280;30602;51.060;17.226;2023-05-01T09:15:44;101876.98;;;14.86;42.37
44872;BME280;30602;51.060;17.226;2023-05-01T09:19:04;101867.74;;;14.80;40.07
44872;BME280;30602;51.060;17.226;2023-05-01T09:22:31;101858.48;;;14.87;41.19
44872;BME280;30602;51.060;17.226;2023-05-01T09:25:56;101849.00;;;15.08;42.03
44872;BME280;30602;51.060;17.226;2023-05-01T09:29:47;101848.44;;;15.11;40.94
44872;BME280;30602;51.060;17.226;2023-05-01T09:33:28;101840.96;;;15.19;43.03
44872;BME280;30602;51.060;17.226;2023-05-01T09:37:48;101851.40;;;15.35;38.57
44872;BME280;30602;51.060;17.226;2023-05-01T09:45:25;101833.48;;;15.43;37.60
44872;BME280;30602;51.060;17.226;2023-05-01T09:49:06;101829.56;;;15.48;37.26
44872;BME280;30602;51.060;17.226;2023-05-01T09:52:49;101827.75;;;15.52;36.00
44872;BME280;30602;51.060;17.226;2023-05-01T09:56:12;101823.80;;;15.60;35.50
44872;BME280;30602;51.060;17.226;2023-05-01T09:59:34;101827.38;;;15.67;37.80
44872;BME280;30602;51.060;17.226;2023-05-01T10:03:34;101818.37;;;15.86;37.37
44872;BME280;30602;51.060;17.226;2023-05-01T10:11:25;101805.80;;;16.29;36.78
44872;BME280;30602;51.060;17.226;2023-05-01T10:14:49;101800.00;;;16.40;36.98
44872;BME280;30602;51.060;17.226;2023-05-01T10:18:10;101792.96;;;16.59;38.01
44872;BME280;30602;51.060;17.226;2023-05-01T10:21:54;101793.21;;;16.56;34.62
44872;BME280;30602;51.060;17.226;2023-05-01T10:25:36;101757.05;;;16.48;36.96
44872;BME280;30602;51.060;17.226;2023-05-01T10:28:59;101765.65;;;16.76;36.23
44872;BME280;30602;51.060;17.226;2023-05-01T10:33:08;101763.02;;;17.03;38.18
44872;BME280;30602;51.060;17.226;2023-05-01T10:36:59;101759.19;;;17.04;33.97
44872;BME280;30602;51.060;17.226;2023-05-01T10:56:52;101742.13;;;17.43;31.40
44872;BME280;30602;51.060;17.226;2023-05-01T11:00:34;101732.12;;;17.35;32.67
44872;BME280;30602;51.060;17.226;2023-05-01T11:04:48;101729.83;;;17.33;32.24
44872;BME280;30602;51.060;17.226;2023-05-01T11:08:45;101724.87;;;17.34;29.63
44872;BME280;30602;51.060;17.226;2023-05-01T11:16:41;101715.86;;;17.40;32.33
44872;BME280;30602;51.060;17.226;2023-05-01T11:24:08;101698.74;;;17.84;34.57
44872;BME280;30602;51.060;17.226;2023-05-01T11:28:02;101697.84;;;17.93;31.83
44872;BME280;30602;51.060;17.226;2023-05-01T11:31:42;101687.61;;;17.93;30.59
44872;BME280;30602;51.060;17.226;2023-05-01T11:35:07;101679.88;;;18.00;35.14
44872;BME280;30602;51.060;17.226;2023-05-01T11:38:56;101667.83;;;18.28;35.37
44872;BME280;30602;51.060;17.226;2023-05-01T11:42:40;101667.54;;;18.43;34.69
44872;BME280;30602;51.060;17.226;2023-05-01T11:46:27;101664.28;;;18.48;32.29
44872;BME280;30602;51.060;17.226;2023-05-01T11:50:10;101653.19;;;18.20;30.21
44872;BME280;30602;51.060;17.226;2023-05-01T11:58:03;101641.77;;;18.22;31.77
44872;BME280;30602;51.060;17.226;2023-05-01T12:02:18;101642.66;;;18.19;29.11
44872;BME280;30602;51.060;17.226;2023-05-01T12:05:44;101632.39;;;18.18;29.38
44872;BME280;30602;51.060;17.226;2023-05-01T12:10:04;101625.87;;;18.11;29.03
44872;BME280;30602;51.060;17.226;2023-05-01T12:13:29;101620.68;;;18.25;30.53
44872;BME280;30602;51.060;17.226;2023-05-01T12:16:59;101614.53;;;18.29;30.40
44872;BME280;30602;51.060;17.226;2023-05-01T12:20:35;101609.91;;;18.36;29.73
44872;BME280;30602;51.060;17.226;2023-05-01T12:24:17;101611.70;;;18.49;29.14
44872;BME280;30602;51.060;17.226;2023-05-01T12:28:14;101596.95;;;18.58;29.69
44872;BME280;30602;51.060;17.226;2023-05-01T12:31:47;101608.09;;;18.49;28.88
44872;BME280;30602;51.060;17.226;2023-05-01T12:35:14;101600.55;;;18.44;30.11
44872;BME280;30602;51.060;17.226;2023-05-01T12:39:17;101586.58;;;18.58;31.48
44872;BME280;30602;51.060;17.226;2023-05-01T12:42:57;101575.87;;;18.67;29.99
44872;BME280;30602;51.060;17.226;2023-05-01T12:46:19;101575.89;;;18.60;26.37
44872;BME280;30602;51.060;17.226;2023-05-01T12:50:04;101566.42;;;18.68;28.41
44872;BME280;30602;51.060;17.226;2023-05-01T12:53:26;101563.29;;;18.97;30.13
44872;BME280;30602;51.060;17.226;2023-05-01T12:57:13;101558.03;;;18.94;27.66
44872;BME280;30602;51.060;17.226;2023-05-01T13:00:40;101557.57;;;19.14;28.07
44872;BME280;30602;51.060;17.226;2023-05-01T13:04:00;101546.46;;;19.14;28.17
44872;BME280;30602;51.060;17.226;2023-05-01T13:07:48;101542.62;;;19.31;27.64
44872;BME280;30602;51.060;17.226;2023-05-01T13:11:16;101540.62;;;19.25;28.33
44872;BME280;30602;51.060;17.226;2023-05-01T13:14:38;101532.38;;;19.24;28.13
44872;BME280;30602;51.060;17.226;2023-05-01T13:18:03;101522.46;;;19.39;28.94
44872;BME280;30602;51.060;17.226;2023-05-01T13:21:48;101510.97;;;19.23;26.76
44872;BME280;30602;51.060;17.226;2023-05-01T13:25:18;101515.26;;;19.25;27.22
44872;BME280;30602;51.060;17.226;2023-05-01T13:28:59;101507.79;;;19.43;30.16
44872;BME280;30602;51.060;17.226;2023-05-01T13:32:24;101503.20;;;19.72;30.45
44872;BME280;30602;51.060;17.226;2023-05-01T13:35:46;101501.49;;;19.91;29.18
44872;BME280;30602;51.060;17.226;2023-05-01T13:39:28;101496.75;;;19.80;26.80
44872;BME280;30602;51.060;17.226;2023-05-01T13:43:29;101483.57;;;19.64;27.29
44872;BME280;30602;51.060;17.226;2023-05-01T13:47:18;101486.42;;;19.74;29.60
44872;BME280;30602;51.060;17.226;2023-05-01T13:51:02;101488.82;;;19.90;28.68
44872;BME280;30602;51.060;17.226;2023-05-01T13:54:48;101483.40;;;19.72;28.29
44872;BME280;30602;51.060;17.226;2023-05-01T13:58:38;101480.20;;;19.56;29.11
44872;BME280;30602;51.060;17.226;2023-05-01T14:02:32;101473.70;;;19.79;31.70
44872;BME280;30602;51.060;17.226;2023-05-01T14:06:15;101464.77;;;19.72;28.53
44872;BME280;30602;51.060;17.226;2023-05-01T14:10:12;101456.53;;;19.68;28.99
44872;BME280;30602;51.060;17.226;2023-05-01T14:13:41;101446.28;;;19.90;29.91
44872;BME280;30602;51.060;17.226;2023-05-01T14:18:07;101446.05;;;19.84;29.15
44872;BME280;30602;51.060;17.226;2023-05-01T14:21:27;101446.87;;;19.80;28.88
44872;BME280;30602;51.060;17.226;2023-05-01T14:28:56;101437.33;;;19.76;28.54
44872;BME280;30602;51.060;17.226;2023-05-01T14:32:17;101433.44;;;19.87;28.99
44872;BME280;30602;51.060;17.226;2023-05-01T14:35:50;101425.34;;;20.06;29.89
44872;BME280;30602;51.060;17.226;2023-05-01T14:39:34;101418.92;;;20.13;29.24
44872;BME280;30602;51.060;17.226;2023-05-01T14:43:17;101405.86;;;20.22;28.29
44872;BME280;30602;51.060;17.226;2023-05-01T14:47:09;101402.63;;;20.20;28.34
44872;BME280;30602;51.060;17.226;2023-05-01T14:50:56;101393.30;;;20.11;28.40
44872;BME280;30602;51.060;17.226;2023-05-01T14:54:20;101394.61;;;20.11;30.37
44872;BME280;30602;51.060;17.226;2023-05-01T14:58:00;101396.16;;;20.05;29.70
44872;BME280;30602;51.060;17.226;2023-05-01T15:02:16;101394.25;;;20.00;29.66
44872;BME280;30602;51.060;17.226;2023-05-01T15:05:35;101396.65;;;20.03;29.69
44872;BME280;30602;51.060;17.226;2023-05-01T15:09:32;101392.06;;;19.92;30.65
44872;BME280;30602;51.060;17.226;2023-05-01T15:13:25;101389.76;;;19.87;30.54
44872;BME280;30602;51.060;17.226;2023-05-01T15:20:57;101377.26;;;19.73;31.17
44872;BME280;30602;51.060;17.226;2023-05-01T15:24:16;101376.52;;;19.82;31.16
44872;BME280;30602;51.060;17.226;2023-05-01T15:28:00;101374.16;;;19.87;31.28
44872;BME280;30602;51.060;17.226;2023-05-01T15:31:40;101366.77;;;19.92;32.17
44872;BME280;30602;51.060;17.226;2023-05-01T15:35:34;101360.15;;;19.74;31.14
44872;BME280;30602;51.060;17.226;2023-05-01T15:38:57;101351.98;;;19.82;33.43
44872;BME280;30602;51.060;17.226;2023-05-01T15:42:19;101349.51;;;19.72;33.58
44872;BME280;30602;51.060;17.226;2023-05-01T15:45:39;101349.90;;;19.70;34.49
44872;BME280;30602;51.060;17.226;2023-05-01T15:49:15;101344.02;;;19.65;34.98
44872;BME280;30602;51.060;17.226;2023-05-01T15:53:25;101340.84;;;19.71;35.91
44872;BME280;30602;51.060;17.226;2023-05-01T15:57:26;101340.15;;;19.62;35.22
44872;BME280;30602;51.060;17.226;2023-05-01T16:00:57;101342.04;;;19.46;35.69
44872;BME280;30602;51.060;17.226;2023-05-01T16:05:18;101340.22;;;19.36;36.97
44872;BME280;30602;51.060;17.226;2023-05-01T16:08:52;101334.00;;;19.34;38.49
44872;BME280;30602;51.060;17.226;2023-05-01T16:12:23;101333.18;;;19.40;37.44
44872;BME280;30602;51.060;17.226;2023-05-01T16:16:11;101332.72;;;19.54;38.08
44872;BME280;30602;51.060;17.226;2023-05-01T16:19:35;101324.27;;;19.61;37.94
44872;BME280;30602;51.060;17.226;2023-05-01T16:23:16;101319.15;;;19.65;38.99
44872;BME280;30602;51.060;17.226;2023-05-01T16:26:39;101317.68;;;19.72;39.53
44872;BME280;30602;51.060;17.226;2023-05-01T16:30:54;101314.50;;;19.71;39.58
44872;BME280;30602;51.060;17.226;2023-05-01T16:34:22;101306.62;;;19.81;39.81
44872;BME280;30602;51.060;17.226;2023-05-01T16:38:49;101301.38;;;19.85;40.66
44872;BME280;30602;51.060;17.226;2023-05-01T16:42:13;101296.85;;;19.92;42.68
44872;BME280;30602;51.060;17.226;2023-05-01T16:45:33;101294.90;;;19.88;42.35
44872;BME280;30602;51.060;17.226;2023-05-01T16:48:58;101296.60;;;19.85;42.62
44872;BME280;30602;51.060;17.226;2023-05-01T16:52:51;101306.40;;;19.74;43.01
44872;BME280;30602;51.060;17.226;2023-05-01T16:58:09;101302.94;;;19.80;43.83
44872;BME280;30602;51.060;17.226;2023-05-01T17:01:43;101311.06;;;19.69;43.92
44872;BME280;30602;51.060;17.226;2023-05-01T17:05:35;101313.28;;;19.62;45.00
44872;BME280;30602;51.060;17.226;2023-05-01T17:09:52;101313.91;;;19.53;44.85
44872;BME280;30602;51.060;17.226;2023-05-01T17:13:58;101309.95;;;19.47;45.10
44872;BME280;30602;51.060;17.226;2023-05-01T17:17:30;101306.90;;;19.48;45.93
44872;BME280;30602;51.060;17.226;2023-05-01T17:20:51;101305.33;;;19.25;46.15
44872;BME280;30602;51.060;17.226;2023-05-01T17:25:20;101302.23;;;19.02;46.66
44872;BME280;30602;51.060;17.226;2023-05-01T17:29:02;101306.20;;;18.89;46.38
44872;BME280;30602;51.060;17.226;2023-05-01T17:32:26;101301.66;;;18.76;47.60
44872;BME280;30602;51.060;17.226;2023-05-01T17:35:46;101298.45;;;18.59;47.68
44872;BME280;30602;51.060;17.226;2023-05-01T17:39:38;101298.77;;;18.48;48.15
44872;BME280;30602;51.060;17.226;2023-05-01T17:43:25;101301.32;;;18.30;48.65
44872;BME280;30602;51.060;17.226;2023-05-01T17:47:13;101306.94;;;18.16;48.80
44872;BME280;30602;51.060;17.226;2023-05-01T17:50:36;101301.27;;;18.03;48.59
44872;BME280;30602;51.060;17.226;2023-05-01T17:54:40;101300.66;;;17.89;50.05
44872;BME280;30602;51.060;17.226;2023-05-01T17:58:14;101300.32;;;17.71;51.64
44872;BME280;30602;51.060;17.226;2023-05-01T18:01:37;101301.03;;;17.58;51.40
44872;BME280;30602;51.060;17.226;2023-05-01T18:05:09;101309.94;;;17.45;52.24
44872;BME280;30602;51.060;17.226;2023-05-01T18:09:03;101308.64;;;17.31;52.62
44872;BME280;30602;51.060;17.226;2023-05-01T18:12:27;101311.95;;;17.20;53.20
44872;BME280;30602;51.060;17.226;2023-05-01T18:19:44;101307.59;;;17.09;54.61
44872;BME280;30602;51.060;17.226;2023-05-01T18:23:19;101307.07;;;16.80;55.74
44872;BME280;30602;51.060;17.226;2023-05-01T18:27:02;101308.34;;;16.63;56.26
44872;BME280;30602;51.060;17.226;2023-05-01T18:31:19;101308.89;;;16.55;56.05
44872;BME280;30602;51.060;17.226;2023-05-01T18:34:43;101313.74;;;16.42;56.17
44872;BME280;30602;51.060;17.226;2023-05-01T18:38:52;101317.52;;;16.32;56.54
44872;BME280;30602;51.060;17.226;2023-05-01T18:42:17;101324.34;;;16.27;56.38
44872;BME280;30602;51.060;17.226;2023-05-01T18:45:34;101323.93;;;16.28;56.37
44872;BME280;30602;51.060;17.226;2023-05-01T18:49:01;101324.07;;;16.26;56.68
44872;BME280;30602;51.060;17.226;2023-05-01T18:52:51;101325.05;;;16.23;57.05
44872;BME280;30602;51.060;17.226;2023-05-01T18:57:23;101327.62;;;16.27;56.96
44872;BME280;30602;51.060;17.226;2023-05-01T19:01:41;101333.47;;;16.17;57.60
44872;BME280;30602;51.060;17.226;2023-05-01T19:05:25;101332.45;;;16.12;57.48
44872;BME280;30602;51.060;17.226;2023-05-01T19:08:50;101328.50;;;16.10;57.56
44872;BME280;30602;51.060;17.226;2023-05-01T19:12:45;101328.52;;;16.09;57.82
44872;BME280;30602;51.060;17.226;2023-05-01T19:16:28;101330.13;;;16.15;57.90
44872;BME280;30602;51.060;17.226;2023-05-01T19:19:52;101328.11;;;16.15;58.64
44872;BME280;30602;51.060;17.226;2023-05-01T19:23:33;101325.78;;;15.98;60.28
44872;BME280;30602;51.060;17.226;2023-05-01T19:27:47;101323.68;;;15.61;62.11
44872;BME280;30602;51.060;17.226;2023-05-01T19:31:41;101332.58;;;15.32;62.19
44872;BME280;30602;51.060;17.226;2023-05-01T19:35:27;101335.82;;;15.14;62.65
44872;BME280;30602;51.060;17.226;2023-05-01T19:38:48;101336.31;;;15.13;62.36
44872;BME280;30602;51.060;17.226;2023-05-01T19:42:39;101338.70;;;15.04;62.62
44872;BME280;30602;51.060;17.226;2023-05-01T19:46:06;101338.66;;;15.01;62.61
44872;BME280;30602;51.060;17.226;2023-05-01T19:49:47;101334.55;;;14.95;62.85
44872;BME280;30602;51.060;17.226;2023-05-01T19:53:07;101333.50;;;15.04;62.16
44872;BME280;30602;51.060;17.226;2023-05-01T19:56:26;101336.99;;;15.12;61.92
44872;BME280;30602;51.060;17.226;2023-05-01T19:59:48;101341.16;;;15.08;62.10
44872;BME280;30602;51.060;17.226;2023-05-01T20:03:17;101342.66;;;15.10;61.63
44872;BME280;30602;51.060;17.226;2023-05-01T20:06:52;101342.08;;;15.07;62.16
44872;BME280;30602;51.060;17.226;2023-05-01T20:10:11;101340.04;;;15.01;62.40
44872;BME280;30602;51.060;17.226;2023-05-01T20:13:31;101330.62;;;14.92;63.10
44872;BME280;30602;51.060;17.226;2023-05-01T20:17:02;101337.09;;;14.87;62.93
44872;BME280;30602;51.060;17.226;2023-05-01T20:20:36;101339.05;;;14.86;63.18
44872;BME280;30602;51.060;17.226;2023-05-01T20:23:58;101336.70;;;14.81;63.19
44872;BME280;30602;51.060;17.226;2023-05-01T20:28:06;101335.30;;;14.76;63.42
44872;BME280;30602;51.060;17.226;2023-05-01T20:32:05;101334.88;;;14.69;63.90
44872;BME280;30602;51.060;17.226;2023-05-01T20:35:57;101333.80;;;14.44;65.49